createdAt,value
2018-07-13T00:01:34.212Z,23.99
2018-07-13T00:04:00.183Z,24.02
2018-07-13T00:06:26.167Z,23.99
2018-07-13T00:08:52.132Z,23.98
2018-07-13T00:11:18.131Z,23.99
2018-07-13T00:13:44.166Z,24.04
2018-07-13T00:16:10.163Z,23.98
2018-07-13T00:18:36.168Z,23.95
2018-07-13T00:21:02.156Z,23.95
2018-07-13T00:23:28.133Z,23.96
2018-07-13T00:25:54.130Z,23.97
2018-07-13T00:28:20.106Z,23.95
2018-07-13T00:30:46.103Z,23.98
2018-07-13T00:33:12.220Z,24.02
2018-07-13T00:35:38.309Z,23.95
2018-07-13T00:38:04.307Z,23.97
2018-07-13T00:40:30.287Z,23.96
2018-07-13T00:42:56.330Z,23.90
2018-07-13T00:45:22.295Z,23.94
2018-07-13T00:47:48.288Z,23.92
2018-07-13T00:50:14.263Z,23.94
2018-07-13T00:52:40.237Z,23.89
2018-07-13T00:55:06.209Z,23.87
2018-07-13T00:57:32.193Z,23.90
2018-07-13T00:59:58.204Z,23.93
2018-07-13T01:02:24.190Z,23.92
2018-07-13T01:04:50.163Z,23.92
2018-07-13T01:07:16.140Z,23.94
2018-07-13T01:09:42.235Z,23.92
2018-07-13T01:12:08.221Z,23.87
2018-07-13T01:14:34.323Z,23.87
2018-07-13T01:17:00.318Z,23.91
2018-07-13T01:19:26.296Z,23.93
2018-07-13T01:21:52.273Z,23.89
2018-07-13T01:24:18.237Z,23.89
2018-07-13T01:26:44.309Z,23.85
2018-07-13T01:29:10.274Z,23.84
2018-07-13T01:31:36.250Z,23.86
2018-07-13T01:34:02.260Z,23.85
2018-07-13T01:36:28.227Z,23.81
2018-07-13T01:38:54.292Z,23.82
2018-07-13T01:41:20.257Z,23.88
2018-07-13T01:43:46.249Z,23.84
2018-07-13T01:46:12.293Z,23.84
2018-07-13T01:48:38.268Z,23.85
2018-07-13T01:51:04.262Z,23.86
2018-07-13T01:53:30.211Z,23.87
2018-07-13T01:55:56.195Z,23.85
2018-07-13T01:58:22.164Z,23.85
2018-07-13T02:00:48.172Z,23.84
2018-07-13T02:03:14.226Z,23.85
2018-07-13T02:05:40.251Z,23.78
2018-07-13T02:08:06.224Z,23.79
2018-07-13T02:10:32.270Z,23.80
2018-07-13T02:12:58.304Z,23.85
2018-07-13T02:15:24.268Z,23.90
2018-07-13T02:17:50.251Z,23.83
2018-07-13T02:20:16.235Z,23.78
2018-07-13T02:22:42.211Z,23.83
2018-07-13T02:25:08.232Z,23.75
2018-07-13T02:27:34.176Z,23.75
2018-07-13T02:30:00.183Z,23.77
2018-07-13T02:32:26.187Z,23.78
2018-07-13T02:34:52.182Z,23.82
2018-07-13T02:37:18.191Z,23.76
2018-07-13T02:39:44.153Z,23.79
2018-07-13T02:42:10.160Z,23.78
2018-07-13T02:44:36.132Z,23.73
2018-07-13T02:47:02.155Z,23.74
2018-07-13T02:49:28.135Z,23.71
2018-07-13T02:51:54.117Z,23.74
2018-07-13T02:54:20.092Z,23.76
2018-07-13T02:56:46.069Z,23.77
2018-07-13T02:59:12.032Z,23.80
2018-07-13T03:01:37.995Z,23.79
2018-07-13T03:04:03.974Z,23.82
2018-07-13T03:06:29.993Z,23.78
2018-07-13T03:08:56.021Z,23.74
2018-07-13T03:11:22.011Z,23.72
2018-07-13T03:13:48.030Z,23.74
2018-07-13T03:16:14.018Z,23.72
2018-07-13T03:18:40.009Z,23.73
2018-07-13T03:21:06.170Z,23.73
2018-07-13T03:23:32.386Z,23.78
2018-07-13T03:25:58.675Z,23.83
2018-07-13T03:28:24.753Z,23.80
2018-07-13T03:30:50.740Z,23.75
2018-07-13T03:33:16.812Z,23.72
2018-07-13T03:35:42.848Z,23.66
2018-07-13T03:38:08.821Z,23.70
2018-07-13T03:40:34.901Z,23.71
2018-07-13T03:43:00.896Z,23.71
2018-07-13T03:45:27.154Z,23.75
2018-07-13T03:47:53.159Z,23.83
2018-07-13T03:50:19.130Z,23.88
2018-07-13T03:52:45.095Z,23.85
2018-07-13T03:55:11.103Z,23.71
2018-07-13T03:57:37.066Z,23.69
2018-07-13T04:00:03.038Z,23.69
2018-07-13T04:02:29.041Z,23.67
2018-07-13T04:04:55.006Z,23.67
2018-07-13T04:07:20.971Z,23.65
2018-07-13T04:09:46.993Z,23.65
2018-07-13T04:12:13.064Z,23.65
2018-07-13T04:14:39.044Z,23.67
2018-07-13T04:17:05.056Z,23.71
2018-07-13T04:19:31.041Z,23.70
2018-07-13T04:21:57.023Z,23.68
2018-07-13T04:24:23.022Z,23.69
2018-07-13T04:26:49.063Z,23.79
2018-07-13T04:29:15.040Z,23.78
2018-07-13T04:31:41.026Z,23.76
2018-07-13T04:34:07.072Z,23.70
2018-07-13T04:36:33.046Z,23.72
2018-07-13T04:38:59.030Z,23.75
2018-07-13T04:41:24.995Z,23.75
2018-07-13T04:43:51.055Z,23.75
2018-07-13T04:46:17.048Z,23.74
2018-07-13T04:48:43.031Z,23.75
2018-07-13T04:51:09.041Z,23.73
2018-07-13T04:53:35.017Z,23.77
2018-07-13T04:56:01.042Z,23.75
2018-07-13T04:58:27.257Z,23.78
2018-07-13T05:00:53.230Z,23.78
2018-07-13T05:03:19.217Z,23.73
2018-07-13T05:05:45.188Z,23.77
2018-07-13T05:08:11.201Z,23.74
2018-07-13T05:10:37.193Z,23.81
2018-07-13T05:13:03.195Z,23.77
2018-07-13T05:15:29.250Z,23.72
2018-07-13T05:17:55.247Z,23.71
2018-07-13T05:20:21.214Z,23.75
2018-07-13T05:22:47.187Z,23.71
2018-07-13T05:25:13.197Z,23.79
2018-07-13T05:27:39.154Z,23.76
2018-07-13T05:30:05.159Z,23.75
2018-07-13T05:32:31.155Z,23.78
2018-07-13T05:34:57.255Z,23.78
2018-07-13T05:37:23.225Z,23.79
2018-07-13T05:39:49.550Z,23.75
2018-07-13T05:42:15.580Z,23.75
2018-07-13T05:44:41.986Z,23.74
2018-07-13T05:47:07.954Z,23.74
2018-07-13T05:49:33.985Z,23.80
2018-07-13T05:52:00.375Z,23.82
2018-07-13T05:54:26.362Z,23.79
2018-07-13T05:56:52.356Z,23.78
2018-07-13T05:59:18.315Z,23.79
2018-07-13T06:01:44.383Z,23.74
2018-07-13T06:04:10.367Z,23.88
2018-07-13T06:06:36.426Z,23.75
2018-07-13T06:09:02.460Z,23.74
2018-07-13T06:11:28.407Z,23.82
2018-07-13T06:13:54.394Z,23.81
2018-07-13T06:16:20.445Z,23.82
2018-07-13T06:18:46.463Z,23.83
2018-07-13T06:21:12.731Z,23.83
2018-07-13T06:23:38.752Z,23.81
2018-07-13T06:26:04.798Z,23.84
2018-07-13T06:28:30.797Z,23.88
2018-07-13T06:30:56.756Z,23.90
2018-07-13T06:33:22.739Z,23.91
2018-07-13T06:35:48.722Z,23.88
2018-07-13T06:38:14.682Z,23.89
2018-07-13T06:40:40.650Z,23.87
2018-07-13T06:43:06.626Z,23.91
2018-07-13T06:45:32.613Z,23.89
2018-07-13T06:47:58.602Z,23.91
2018-07-13T06:50:24.580Z,24.15
2018-07-13T06:52:50.568Z,24.02
2018-07-13T06:55:16.563Z,23.95
2018-07-13T06:57:42.540Z,23.90
2018-07-13T07:00:08.585Z,23.88
2018-07-13T07:02:34.554Z,23.83
2018-07-13T07:05:00.516Z,23.87
2018-07-13T07:07:26.497Z,23.96
2018-07-13T07:09:52.465Z,24.04
2018-07-13T07:12:18.447Z,24.03
2018-07-13T07:14:44.420Z,24.08
2018-07-13T07:17:10.446Z,23.97
2018-07-13T07:19:36.446Z,23.97
2018-07-13T07:22:02.429Z,23.94
2018-07-13T07:24:28.460Z,23.96
2018-07-13T07:26:54.419Z,24.01
2018-07-13T07:29:20.444Z,23.94
2018-07-13T07:31:46.408Z,23.96
2018-07-13T07:34:12.386Z,23.98
2018-07-13T07:36:38.364Z,23.94
2018-07-13T07:39:04.326Z,23.98
2018-07-13T07:41:30.319Z,24.04
2018-07-13T07:43:56.347Z,24.08
2018-07-13T07:46:22.303Z,24.07
2018-07-13T07:48:48.274Z,24.01
2018-07-13T07:51:14.241Z,23.98
2018-07-13T07:53:40.237Z,23.95
2018-07-13T07:56:06.928Z,23.96
2018-07-13T07:58:32.926Z,23.93
2018-07-13T08:00:58.919Z,23.96
2018-07-13T08:03:24.922Z,23.98
2018-07-13T08:05:50.908Z,23.93
2018-07-13T08:08:16.895Z,24.04
2018-07-13T08:10:42.888Z,24.00
2018-07-13T08:13:08.863Z,24.04
2018-07-13T08:15:34.840Z,24.01
2018-07-13T08:18:00.867Z,24.08
2018-07-13T08:20:26.839Z,24.05
2018-07-13T08:22:52.808Z,24.02
2018-07-13T08:25:18.841Z,24.04
2018-07-13T08:27:44.814Z,24.01
2018-07-13T08:30:10.784Z,24.00
2018-07-13T08:32:36.749Z,24.01
2018-07-13T08:35:02.729Z,24.00
2018-07-13T08:37:28.734Z,24.00
2018-07-13T08:39:54.729Z,24.01
2018-07-13T08:42:20.708Z,24.08
2018-07-13T08:44:46.712Z,24.04
2018-07-13T08:47:12.694Z,24.11
2018-07-13T08:49:38.724Z,24.05
2018-07-13T08:52:04.694Z,24.06
2018-07-13T08:54:30.689Z,24.10
2018-07-13T08:56:56.648Z,24.02
2018-07-13T08:59:22.619Z,24.06
2018-07-13T09:01:48.597Z,24.13
2018-07-13T09:04:14.642Z,24.04
2018-07-13T09:06:40.575Z,24.37
2018-07-13T09:09:06.550Z,24.50
2018-07-13T09:11:32.563Z,24.47
2018-07-13T09:13:58.535Z,24.20
2018-07-13T09:16:24.487Z,24.14
2018-07-13T09:18:50.448Z,24.15
2018-07-13T09:21:16.420Z,24.11
2018-07-13T09:23:42.401Z,24.08
2018-07-13T09:26:08.351Z,24.04
2018-07-13T09:28:34.303Z,24.10
2018-07-13T09:31:00.296Z,24.07
2018-07-13T09:33:26.266Z,24.12
2018-07-13T09:35:52.223Z,24.18
2018-07-13T09:38:18.293Z,24.12
2018-07-13T09:40:44.200Z,24.12
2018-07-13T09:43:10.222Z,24.09
2018-07-13T09:45:36.202Z,24.13
2018-07-13T09:48:02.198Z,24.11
2018-07-13T09:50:28.172Z,24.10
2018-07-13T09:52:54.145Z,24.12
2018-07-13T09:55:20.290Z,24.16
2018-07-13T09:57:46.282Z,24.14
2018-07-13T10:00:12.254Z,24.19
2018-07-13T10:02:38.248Z,24.16
2018-07-13T10:05:04.232Z,24.22
2018-07-13T10:07:30.232Z,24.22
2018-07-13T10:09:56.507Z,24.14
2018-07-13T10:12:22.483Z,24.15
2018-07-13T10:14:48.492Z,24.13
2018-07-13T10:17:14.460Z,24.18
2018-07-13T10:19:40.444Z,24.17
2018-07-13T10:22:06.511Z,24.11
2018-07-13T10:24:33.699Z,24.11
2018-07-13T10:26:59.656Z,24.16
2018-07-13T10:29:25.666Z,24.17
2018-07-13T10:31:51.624Z,24.17
2018-07-13T10:34:17.793Z,24.17
2018-07-13T10:36:43.773Z,24.25
2018-07-13T10:39:09.774Z,24.17
2018-07-13T10:41:36.577Z,24.18
2018-07-13T10:44:02.582Z,24.26
2018-07-13T10:46:28.557Z,24.28
2018-07-13T10:48:54.539Z,24.26
2018-07-13T10:51:20.566Z,24.27
2018-07-13T10:53:46.528Z,24.28
2018-07-13T10:56:12.543Z,24.50
2018-07-13T10:58:38.542Z,24.44
2018-07-13T11:01:04.518Z,24.29
2018-07-13T11:03:30.541Z,24.24
2018-07-13T11:05:56.530Z,24.17
2018-07-13T11:08:22.540Z,24.21
2018-07-13T11:10:48.550Z,24.22
2018-07-13T11:13:14.530Z,24.18
2018-07-13T11:15:40.529Z,24.21
2018-07-13T11:18:06.531Z,24.18
2018-07-13T11:20:32.536Z,24.17
2018-07-13T11:22:58.498Z,24.18
2018-07-13T11:25:24.452Z,24.21
2018-07-13T11:27:50.859Z,24.20
2018-07-13T11:30:16.910Z,24.22
2018-07-13T11:32:42.879Z,24.25
2018-07-13T11:35:08.869Z,24.21
2018-07-13T11:37:34.853Z,24.24
2018-07-13T11:40:00.884Z,24.22
2018-07-13T11:42:26.845Z,24.26
2018-07-13T11:44:52.831Z,24.23
2018-07-13T11:47:18.840Z,24.22
2018-07-13T11:49:44.816Z,24.28
2018-07-13T11:52:10.878Z,24.25
2018-07-13T11:54:36.810Z,24.27
2018-07-13T11:57:02.783Z,24.26
2018-07-13T11:59:28.766Z,24.24
2018-07-13T12:01:54.756Z,24.21
2018-07-13T12:04:20.955Z,24.22
2018-07-13T12:06:46.967Z,24.23
2018-07-13T12:09:12.925Z,24.27
2018-07-13T12:11:38.932Z,24.25
2018-07-13T12:14:04.922Z,24.31
2018-07-13T12:16:30.906Z,24.30
2018-07-13T12:18:56.861Z,24.32
2018-07-13T12:21:22.827Z,24.27
2018-07-13T12:23:48.784Z,24.29
2018-07-13T12:26:14.781Z,24.32
2018-07-13T12:28:40.769Z,24.30
2018-07-13T12:31:06.783Z,24.34
2018-07-13T12:33:32.774Z,24.28
2018-07-13T12:35:58.746Z,24.29
2018-07-13T12:38:24.731Z,24.45
2018-07-13T12:40:50.826Z,24.32
2018-07-13T12:43:16.857Z,24.30
2018-07-13T12:45:44.148Z,24.28
2018-07-13T12:48:10.105Z,24.29
2018-07-13T12:50:36.393Z,24.39
2018-07-13T12:53:02.370Z,24.36
2018-07-13T12:55:28.348Z,24.32
2018-07-13T12:57:54.669Z,24.28
2018-07-13T13:00:20.637Z,24.36
2018-07-13T13:02:46.612Z,24.47
2018-07-13T13:05:12.589Z,24.38
2018-07-13T13:07:38.587Z,24.40
2018-07-13T13:10:04.546Z,24.35
2018-07-13T13:12:30.609Z,24.35
2018-07-13T13:14:56.576Z,24.41
2018-07-13T13:17:22.577Z,24.34
2018-07-13T13:19:48.610Z,24.34
2018-07-13T13:22:14.588Z,24.30
2018-07-13T13:24:40.640Z,24.35
2018-07-13T13:27:06.608Z,24.33
2018-07-13T13:29:32.597Z,24.44
2018-07-13T13:31:58.660Z,24.35
2018-07-13T13:34:24.664Z,24.34
2018-07-13T13:36:50.697Z,24.36
2018-07-13T13:39:16.969Z,24.40
2018-07-13T13:41:42.942Z,24.33
2018-07-13T13:44:08.931Z,24.34
2018-07-13T13:46:34.894Z,24.38
2018-07-13T13:49:00.980Z,24.36
2018-07-13T13:51:27.024Z,24.38
2018-07-13T13:53:53.018Z,24.34
2018-07-13T13:56:18.987Z,24.35
2018-07-13T13:58:44.966Z,24.35
2018-07-13T14:01:10.968Z,24.34
2018-07-13T14:03:36.955Z,24.36
2018-07-13T14:06:02.954Z,24.31
2018-07-13T14:08:28.952Z,24.31
2018-07-13T14:10:54.933Z,24.35
2018-07-13T14:13:20.904Z,24.35
2018-07-13T14:15:46.892Z,24.36
2018-07-13T14:18:12.868Z,24.36
2018-07-13T14:20:38.906Z,24.34
2018-07-13T14:23:04.880Z,24.37
2018-07-13T14:25:30.859Z,24.38
2018-07-13T14:27:56.841Z,24.34
2018-07-13T14:30:22.812Z,24.34
2018-07-13T14:32:48.826Z,24.35
2018-07-13T14:35:14.813Z,24.36
2018-07-13T14:37:40.804Z,24.39
2018-07-13T14:40:08.710Z,24.37
2018-07-13T14:42:34.719Z,24.36
2018-07-13T14:45:00.750Z,24.35
2018-07-13T14:47:26.756Z,24.36
2018-07-13T14:49:52.804Z,24.30
2018-07-13T14:52:18.794Z,24.32
2018-07-13T14:54:44.760Z,24.31
2018-07-13T14:57:10.761Z,24.34
2018-07-13T14:59:36.786Z,24.37
2018-07-13T15:02:02.782Z,24.37
2018-07-13T15:04:28.789Z,24.40
2018-07-13T15:06:54.845Z,24.38
2018-07-13T15:09:20.851Z,24.43
2018-07-13T15:11:46.863Z,24.39
2018-07-13T15:14:12.867Z,24.38
2018-07-13T15:16:38.855Z,24.41
2018-07-13T15:19:04.839Z,24.35
2018-07-13T15:21:30.819Z,24.39
2018-07-13T15:23:56.811Z,24.35
2018-07-13T15:26:22.789Z,24.35
2018-07-13T15:28:48.772Z,24.36
2018-07-13T15:31:14.755Z,24.58
2018-07-13T15:33:40.722Z,24.67
2018-07-13T15:36:06.988Z,24.46
2018-07-13T15:38:32.975Z,24.42
2018-07-13T15:40:58.973Z,24.42
2018-07-13T15:43:25.090Z,24.46
2018-07-13T15:45:51.004Z,24.43
2018-07-13T15:48:16.984Z,24.47
2018-07-13T15:50:42.991Z,24.45
2018-07-13T15:53:08.942Z,24.44
2018-07-13T15:55:34.926Z,24.40
2018-07-13T15:58:00.893Z,24.41
2018-07-13T16:00:26.895Z,24.42
2018-07-13T16:02:52.904Z,24.46
2018-07-13T16:05:19.000Z,24.48
2018-07-13T16:07:44.866Z,24.41
2018-07-13T16:10:11.074Z,24.42
2018-07-13T16:12:37.082Z,24.42
2018-07-13T16:15:03.034Z,24.46
2018-07-13T16:17:28.993Z,24.40
2018-07-13T16:19:54.997Z,24.53
2018-07-13T16:22:20.983Z,24.46
2018-07-13T16:24:46.977Z,24.45
2018-07-13T16:27:13.208Z,24.40
2018-07-13T16:29:39.200Z,24.45
2018-07-13T16:32:05.386Z,24.47
2018-07-13T16:34:31.352Z,24.47
2018-07-13T16:36:57.353Z,24.45
2018-07-13T16:39:23.351Z,24.50
2018-07-13T16:41:49.328Z,24.46
2018-07-13T16:44:15.313Z,24.39
2018-07-13T16:46:41.311Z,24.46
2018-07-13T16:49:07.554Z,24.47
2018-07-13T16:51:33.539Z,24.41
2018-07-13T16:53:59.518Z,24.41
2018-07-13T16:56:25.522Z,24.44
2018-07-13T16:58:51.486Z,24.46
2018-07-13T17:01:17.497Z,24.43
2018-07-13T17:03:43.488Z,24.35
2018-07-13T17:06:09.476Z,24.44
2018-07-13T17:08:35.448Z,24.43
2018-07-13T17:11:01.451Z,24.45
2018-07-13T17:13:27.517Z,24.46
2018-07-13T17:15:53.560Z,24.43
2018-07-13T17:18:19.542Z,24.46
2018-07-13T17:20:45.523Z,24.47
2018-07-13T17:23:11.532Z,24.47
2018-07-13T17:25:37.525Z,24.45
2018-07-13T17:28:03.497Z,24.44
2018-07-13T17:30:29.499Z,24.47
2018-07-13T17:32:55.485Z,24.46
2018-07-13T17:35:21.464Z,24.50
2018-07-13T17:37:47.754Z,24.48
2018-07-13T17:40:13.731Z,24.42
2018-07-13T17:42:39.793Z,24.44
2018-07-13T17:45:05.734Z,24.49
2018-07-13T17:47:31.697Z,24.43
2018-07-13T17:49:57.718Z,24.45
2018-07-13T17:52:23.692Z,24.47
2018-07-13T17:54:50.029Z,24.43
2018-07-13T17:57:16.023Z,24.51
2018-07-13T17:59:42.009Z,24.50
2018-07-13T18:02:07.984Z,24.46
2018-07-13T18:04:33.993Z,24.49
2018-07-13T18:06:59.981Z,24.44
2018-07-13T18:09:26.322Z,24.49
2018-07-13T18:11:52.324Z,24.49
2018-07-13T18:14:18.311Z,24.44
2018-07-13T18:16:44.285Z,24.51
2018-07-13T18:19:10.285Z,24.50
2018-07-13T18:21:36.325Z,24.45
2018-07-13T18:24:02.288Z,24.52
2018-07-13T18:26:28.284Z,24.43
2018-07-13T18:28:54.280Z,24.45
2018-07-13T18:31:20.253Z,24.64
2018-07-13T18:33:46.229Z,24.63
2018-07-13T18:36:12.217Z,24.58
2018-07-13T18:38:38.280Z,24.57
2018-07-13T18:41:04.231Z,24.57
2018-07-13T18:43:30.255Z,24.54
2018-07-13T18:45:56.247Z,24.50
2018-07-13T18:48:22.482Z,24.50
2018-07-13T18:50:48.498Z,24.51
2018-07-13T18:53:14.448Z,24.57
2018-07-13T18:55:40.429Z,24.57
2018-07-13T18:58:06.402Z,24.52
2018-07-13T19:00:32.404Z,24.55
2018-07-13T19:02:58.473Z,24.54
2018-07-13T19:05:24.489Z,24.53
2018-07-13T19:07:50.534Z,24.64
2018-07-13T19:10:16.513Z,24.64
2018-07-13T19:12:42.572Z,24.67
2018-07-13T19:15:08.571Z,24.61
2018-07-13T19:17:34.613Z,24.48
2018-07-13T19:20:00.644Z,24.54
2018-07-13T19:22:26.771Z,24.59
2018-07-13T19:24:52.809Z,24.60
2018-07-13T19:27:18.792Z,24.60
2018-07-13T19:29:44.793Z,24.58
2018-07-13T19:32:10.767Z,24.49
2018-07-13T19:34:36.820Z,24.47
2018-07-13T19:37:02.835Z,24.55
2018-07-13T19:39:28.812Z,24.58
2018-07-13T19:41:54.808Z,24.49
2018-07-13T19:44:20.847Z,24.47
2018-07-13T19:46:46.850Z,24.47
2018-07-13T19:49:12.855Z,24.46
2018-07-13T19:51:38.854Z,24.45
2018-07-13T19:54:04.801Z,24.44
2018-07-13T19:56:30.910Z,24.44
2018-07-13T19:58:56.871Z,24.44
2018-07-13T20:01:23.911Z,24.48
2018-07-13T20:03:49.878Z,24.48
2018-07-13T20:06:15.923Z,24.45
2018-07-13T20:08:41.896Z,24.55
2018-07-13T20:11:07.928Z,24.49
2018-07-13T20:13:33.944Z,24.49
2018-07-13T20:15:59.881Z,24.45
2018-07-13T20:18:25.828Z,24.44
2018-07-13T20:20:51.876Z,24.46
2018-07-13T20:23:17.858Z,24.49
2018-07-13T20:25:43.820Z,24.44
2018-07-13T20:28:09.786Z,24.38
2018-07-13T20:30:35.783Z,24.32
2018-07-13T20:33:01.802Z,24.28
2018-07-13T20:35:27.796Z,24.30
2018-07-13T20:37:53.833Z,24.29
2018-07-13T20:40:19.808Z,24.30
2018-07-13T20:42:45.824Z,24.28
2018-07-13T20:45:11.822Z,24.31
2018-07-13T20:47:37.805Z,24.33
2018-07-13T20:50:03.751Z,24.28
2018-07-13T20:52:29.716Z,24.27
2018-07-13T20:54:55.888Z,24.27
2018-07-13T20:57:21.857Z,24.48
2018-07-13T20:59:47.856Z,24.34
2018-07-13T21:02:13.840Z,24.28
2018-07-13T21:04:39.858Z,24.33
2018-07-13T21:07:05.887Z,24.42
2018-07-13T21:09:31.936Z,24.47
2018-07-13T21:11:57.936Z,24.42
2018-07-13T21:14:23.938Z,24.44
2018-07-13T21:16:49.907Z,24.49
2018-07-13T21:19:15.916Z,24.49
2018-07-13T21:21:42.000Z,24.54
2018-07-13T21:24:08.006Z,24.50
2018-07-13T21:26:34.000Z,24.49
2018-07-13T21:28:59.973Z,24.44
2018-07-13T21:31:26.061Z,24.40
2018-07-13T21:33:52.046Z,24.43
2018-07-13T21:36:18.059Z,24.39
2018-07-13T21:38:44.036Z,24.33
2018-07-13T21:41:10.033Z,24.35
2018-07-13T21:43:36.004Z,24.31
2018-07-13T21:46:02.099Z,24.40
2018-07-13T21:48:28.330Z,24.38
2018-07-13T21:50:54.326Z,24.46
2018-07-13T21:53:20.500Z,24.44
2018-07-13T21:55:46.484Z,24.34
2018-07-13T21:58:12.480Z,24.27
2018-07-13T22:00:38.492Z,24.37
2018-07-13T22:03:04.515Z,24.39
2018-07-13T22:05:30.546Z,24.39
2018-07-13T22:07:56.515Z,24.36
2018-07-13T22:10:22.541Z,24.27
2018-07-13T22:12:48.536Z,24.31
2018-07-13T22:15:14.551Z,24.29
2018-07-13T22:17:40.588Z,24.31
2018-07-13T22:20:07.459Z,24.31
2018-07-13T22:22:33.454Z,24.44
2018-07-13T22:24:59.425Z,24.28
2018-07-13T22:27:25.426Z,24.25
2018-07-13T22:29:51.655Z,24.26
2018-07-13T22:32:17.780Z,24.26
2018-07-13T22:34:43.786Z,24.30
2018-07-13T22:37:09.831Z,24.30
2018-07-13T22:39:35.835Z,24.31
2018-07-13T22:42:01.815Z,24.28
2018-07-13T22:44:28.013Z,24.29
2018-07-13T22:46:53.998Z,24.27
2018-07-13T22:49:20.016Z,24.23
2018-07-13T22:51:45.997Z,24.30
2018-07-13T22:54:12.028Z,24.29
2018-07-13T22:56:38.047Z,24.34
2018-07-13T22:59:04.065Z,24.29
2018-07-13T23:01:30.041Z,24.24
2018-07-13T23:03:56.026Z,24.24
2018-07-13T23:06:22.068Z,24.22
2018-07-13T23:08:48.102Z,24.23
2018-07-13T23:11:14.073Z,24.28
2018-07-13T23:13:40.049Z,24.27
2018-07-13T23:16:05.984Z,24.29
2018-07-13T23:18:32.239Z,24.24
2018-07-13T23:20:58.258Z,24.30
2018-07-13T23:23:24.236Z,24.26
2018-07-13T23:25:50.260Z,24.27
2018-07-13T23:28:16.308Z,24.23
2018-07-13T23:30:42.327Z,24.25
2018-07-13T23:33:08.331Z,24.24
2018-07-13T23:35:34.377Z,24.22
2018-07-13T23:38:00.327Z,24.25
2018-07-13T23:40:26.276Z,24.27
2018-07-13T23:42:52.259Z,24.27
2018-07-13T23:45:18.269Z,24.29
2018-07-13T23:47:44.268Z,24.29
2018-07-13T23:50:10.601Z,24.28
2018-07-13T23:52:36.805Z,24.23
2018-07-13T23:55:03.022Z,24.21
2018-07-13T23:57:29.099Z,24.17
2018-07-13T23:59:55.140Z,24.21
